sensor_id;sensor_type;location;lat;lon;timestamp;pressure;altitude;pressure_sealevel;temperature;humidity
61757;BME280;57225;61.460;24.060;2023-12-22T00:01:03;96431.19;;;-2.26;100.00
61757;BME280;57225;61.460;24.060;2023-12-22T00:03:48;96416.44;;;-2.29;100.00
61757;BME280;57225;61.460;24.060;2023-12-22T00:06:34;96412.59;;;-2.35;100.00
61757;BME280;57225;61.460;24.060;2023-12-22T00:09:19;96397.88;;;-2.41;100.00
61757;BME280;57225;61.460;24.060;2023-12-22T00:12:03;96410.59;;;-2.31;100.00
61757;BME280;57225;61.460;24.060;2023-12-22T00:14:48;96405.53;;;-2.29;100.00
61757;BME280;57225;61.460;24.060;2023-12-22T00:17:33;96408.03;;;-2.15;100.00
61757;BME280;57225;61.460;24.060;2023-12-22T00:20:17;96414.00;;;-2.23;100.00
61757;BME280;57225;61.460;24.060;2023-12-22T00:23:03;96403.91;;;-2.26;100.00
61757;BME280;57225;61.460;24.060;2023-12-22T00:25:47;96409.78;;;-2.28;100.00
61757;BME280;57225;61.460;24.060;2023-12-22T00:28:32;96401.25;;;-2.30;100.00
61757;BME280;57225;61.460;24.060;2023-12-22T00:31:16;96396.91;;;-2.27;100.00
61757;BME280;57225;61.460;24.060;2023-12-22T00:34:01;96391.44;;;-2.24;100.00
61757;BME280;57225;61.460;24.060;2023-12-22T00:36:46;96391.81;;;-2.25;100.00
61757;BME280;57225;61.460;24.060;2023-12-22T00:39:30;96378.25;;;-2.29;100.00
61757;BME280;57225;61.460;24.060;2023-12-22T00:42:15;96376.63;;;-2.23;100.00
61757;BME280;57225;61.460;24.060;2023-12-22T00:44:59;96377.38;;;-2.22;100.00
61757;BME280;57225;61.460;24.060;2023-12-22T00:47:43;96378.50;;;-2.20;100.00
61757;BME280;57225;61.460;24.060;2023-12-22T00:50:28;96375.78;;;-2.20;100.00
61757;BME280;57225;61.460;24.060;2023-12-22T00:53:13;96364.88;;;-2.20;100.00
61757;BME280;57225;61.460;24.060;2023-12-22T00:55:59;96374.19;;;-2.17;100.00
61757;BME280;57225;61.460;24.060;2023-12-22T00:58:45;96370.31;;;-2.20;100.00
61757;BME280;57225;61.460;24.060;2023-12-22T01:01:29;96369.44;;;-2.13;100.00
61757;BME280;57225;61.460;24.060;2023-12-22T01:04:14;96361.69;;;-2.15;100.00
61757;BME280;57225;61.460;24.060;2023-12-22T01:06:59;96362.91;;;-2.19;100.00
61757;BME280;57225;61.460;24.060;2023-12-22T01:09:44;96362.16;;;-2.20;100.00
61757;BME280;57225;61.460;24.060;2023-12-22T01:12:28;96350.84;;;-2.18;100.00
61757;BME280;57225;61.460;24.060;2023-12-22T01:15:13;96350.78;;;-2.15;100.00
61757;BME280;57225;61.460;24.060;2023-12-22T01:17:57;96360.59;;;-2.21;100.00
61757;BME280;57225;61.460;24.060;2023-12-22T01:20:42;96351.63;;;-2.21;100.00
61757;BME280;57225;61.460;24.060;2023-12-22T01:23:27;96349.81;;;-2.28;100.00
61757;BME280;57225;61.460;24.060;2023-12-22T01:26:11;96346.41;;;-2.35;100.00
61757;BME280;57225;61.460;24.060;2023-12-22T01:28:56;96343.69;;;-2.35;100.00
61757;BME280;57225;61.460;24.060;2023-12-22T01:31:40;96347.13;;;-2.31;100.00
61757;BME280;57225;61.460;24.060;2023-12-22T01:34:25;96352.94;;;-2.29;100.00
61757;BME280;57225;61.460;24.060;2023-12-22T01:37:09;96349.44;;;-2.30;100.00
61757;BME280;57225;61.460;24.060;2023-12-22T01:39:54;96351.63;;;-2.21;100.00
61757;BME280;57225;61.460;24.060;2023-12-22T01:42:38;96345.47;;;-2.25;100.00
61757;BME280;57225;61.460;24.060;2023-12-22T01:45:24;96346.19;;;-2.21;100.00
61757;BME280;57225;61.460;24.060;2023-12-22T01:48:08;96338.53;;;-2.30;100.00
61757;BME280;57225;61.460;24.060;2023-12-22T01:50:55;96348.09;;;-2.18;100.00
61757;BME280;57225;61.460;24.060;2023-12-22T01:53:40;96340.63;;;-2.14;100.00
61757;BME280;57225;61.460;24.060;2023-12-22T01:56:24;96327.88;;;-2.21;100.00
61757;BME280;57225;61.460;24.060;2023-12-22T01:59:10;96330.50;;;-2.14;100.00
61757;BME280;57225;61.460;24.060;2023-12-22T02:01:54;96325.03;;;-2.14;100.00
61757;BME280;57225;61.460;24.060;2023-12-22T02:04:39;96320.44;;;-2.17;100.00
61757;BME280;57225;61.460;24.060;2023-12-22T02:07:24;96328.94;;;-2.15;100.00
61757;BME280;57225;61.460;24.060;2023-12-22T02:10:09;96324.34;;;-2.18;100.00
61757;BME280;57225;61.460;24.060;2023-12-22T02:12:53;96318.41;;;-2.13;100.00
61757;BME280;57225;61.460;24.060;2023-12-22T02:15:38;96308.06;;;-2.25;100.00
61757;BME280;57225;61.460;24.060;2023-12-22T02:18:26;96319.59;;;-2.14;100.00
61757;BME280;57225;61.460;24.060;2023-12-22T02:21:14;96305.34;;;-2.25;100.00
61757;BME280;57225;61.460;24.060;2023-12-22T02:23:58;96316.88;;;-2.14;100.00
61757;BME280;57225;61.460;24.060;2023-12-22T02:26:45;96318.00;;;-2.11;100.00
61757;BME280;57225;61.460;24.060;2023-12-22T02:29:37;96309.75;;;-2.08;100.00
61757;BME280;57225;61.460;24.060;2023-12-22T02:32:31;96312.50;;;-2.08;100.00
61757;BME280;57225;61.460;24.060;2023-12-22T02:35:23;96312.38;;;-2.00;100.00
61757;BME280;57225;61.460;24.060;2023-12-22T02:38:08;96309.06;;;-2.12;100.00
61757;BME280;57225;61.460;24.060;2023-12-22T02:40:54;96310.84;;;-2.02;100.00
61757;BME280;57225;61.460;24.060;2023-12-22T02:43:39;96302.31;;;-2.04;100.00
61757;BME280;57225;61.460;24.060;2023-12-22T02:46:23;96321.09;;;-2.09;100.00
61757;BME280;57225;61.460;24.060;2023-12-22T02:49:07;96313.94;;;-1.99;100.00
61757;BME280;57225;61.460;24.060;2023-12-22T02:51:52;96311.56;;;-1.97;100.00
61757;BME280;57225;61.460;24.060;2023-12-22T02:54:36;96303.00;;;-1.99;100.00
61757;BME280;57225;61.460;24.060;2023-12-22T02:57:23;96304.09;;;-1.93;100.00
61757;BME280;57225;61.460;24.060;2023-12-22T03:00:08;96304.03;;;-1.90;100.00
61757;BME280;57225;61.460;24.060;2023-12-22T03:02:53;96308.72;;;-1.90;100.00
61757;BME280;57225;61.460;24.060;2023-12-22T03:05:37;96304.38;;;-1.88;100.00
61757;BME280;57225;61.460;24.060;2023-12-22T03:08:22;96307.13;;;-1.88;100.00
61757;BME280;57225;61.460;24.060;2023-12-22T03:11:06;96302.06;;;-1.89;100.00
61757;BME280;57225;61.460;24.060;2023-12-22T03:13:51;96310.88;;;-1.78;100.00
61757;BME280;57225;61.460;24.060;2023-12-22T03:16:35;96305.88;;;-1.83;100.00
61757;BME280;57225;61.460;24.060;2023-12-22T03:19:20;96301.94;;;-1.82;100.00
61757;BME280;57225;61.460;24.060;2023-12-22T03:22:07;96310.63;;;-1.87;100.00
61757;BME280;57225;61.460;24.060;2023-12-22T03:24:51;96306.72;;;-1.86;100.00
61757;BME280;57225;61.460;24.060;2023-12-22T03:27:36;96305.88;;;-1.83;100.00
61757;BME280;57225;61.460;24.060;2023-12-22T03:30:20;96304.34;;;-1.84;100.00
61757;BME280;57225;61.460;24.060;2023-12-22T03:33:05;96300.47;;;-1.87;100.00
61757;BME280;57225;61.460;24.060;2023-12-22T03:35:50;96298.22;;;-1.92;100.00
61757;BME280;57225;61.460;24.060;2023-12-22T03:38:35;96295.78;;;-1.86;100.00
61757;BME280;57225;61.460;24.060;2023-12-22T03:41:19;96291.16;;;-1.89;100.00
61757;BME280;57225;61.460;24.060;2023-12-22T03:44:05;96285.00;;;-1.93;100.00
61757;BME280;57225;61.460;24.060;2023-12-22T03:46:49;96281.13;;;-1.96;100.00
61757;BME280;57225;61.460;24.060;2023-12-22T03:49:35;96285.94;;;-2.04;100.00
61757;BME280;57225;61.460;24.060;2023-12-22T03:52:20;96279.31;;;-2.03;100.00
61757;BME280;57225;61.460;24.060;2023-12-22T03:55:05;96267.66;;;-2.07;100.00
61757;BME280;57225;61.460;24.060;2023-12-22T03:57:49;96276.44;;;-1.95;100.00
61757;BME280;57225;61.460;24.060;2023-12-22T04:00:34;96275.81;;;-2.03;100.00
61757;BME280;57225;61.460;24.060;2023-12-22T04:03:19;96270.75;;;-2.05;100.00
61757;BME280;57225;61.460;24.060;2023-12-22T04:06:03;96278.16;;;-2.05;100.00
61757;BME280;57225;61.460;24.060;2023-12-22T04:08:48;96271.56;;;-2.08;100.00
61757;BME280;57225;61.460;24.060;2023-12-22T04:11:33;96273.41;;;-2.01;100.00
61757;BME280;57225;61.460;24.060;2023-12-22T04:14:19;96277.28;;;-1.98;100.00
61757;BME280;57225;61.460;24.060;2023-12-22T04:17:03;96261.63;;;-1.94;100.00
61757;BME280;57225;61.460;24.060;2023-12-22T04:19:47;96271.84;;;-1.98;100.00
61757;BME280;57225;61.460;24.060;2023-12-22T04:22:32;96264.84;;;-1.99;100.00
61757;BME280;57225;61.460;24.060;2023-12-22T04:25:16;96252.03;;;-2.03;100.00
61757;BME280;57225;61.460;24.060;2023-12-22T04:28:02;96253.91;;;-1.99;100.00
61757;BME280;57225;61.460;24.060;2023-12-22T04:30:46;96258.13;;;-1.95;100.00
61757;BME280;57225;61.460;24.060;2023-12-22T04:33:30;96261.28;;;-1.96;100.00
61757;BME280;57225;61.460;24.060;2023-12-22T04:36:15;96257.06;;;-2.01;100.00
61757;BME280;57225;61.460;24.060;2023-12-22T04:38:59;96258.91;;;-1.94;100.00
61757;BME280;57225;61.460;24.060;2023-12-22T04:41:44;96257.00;;;-1.97;100.00
61757;BME280;57225;61.460;24.060;2023-12-22T04:44:28;96264.66;;;-1.89;100.00
61757;BME280;57225;61.460;24.060;2023-12-22T04:47:14;96245.34;;;-1.98;100.00
61757;BME280;57225;61.460;24.060;2023-12-22T04:49:58;96256.91;;;-1.90;100.00
61757;BME280;57225;61.460;24.060;2023-12-22T04:52:43;96249.81;;;-1.88;100.00
61757;BME280;57225;61.460;24.060;2023-12-22T04:55:28;96253.84;;;-1.96;100.00
61757;BME280;57225;61.460;24.060;2023-12-22T04:58:12;96245.97;;;-1.90;100.00
61757;BME280;57225;61.460;24.060;2023-12-22T05:00:57;96247.16;;;-1.91;100.00
61757;BME280;57225;61.460;24.060;2023-12-22T05:03:41;96240.53;;;-1.90;100.00
61757;BME280;57225;61.460;24.060;2023-12-22T05:06:26;96251.06;;;-1.92;100.00
61757;BME280;57225;61.460;24.060;2023-12-22T05:09:11;96240.47;;;-1.87;100.00
61757;BME280;57225;61.460;24.060;2023-12-22T05:11:56;96252.22;;;-1.90;100.00
61757;BME280;57225;61.460;24.060;2023-12-22T05:14:40;96223.09;;;-1.96;100.00
61757;BME280;57225;61.460;24.060;2023-12-22T05:17:24;96235.06;;;-1.90;100.00
61757;BME280;57225;61.460;24.060;2023-12-22T05:20:09;96248.72;;;-1.90;100.00
61757;BME280;57225;61.460;24.060;2023-12-22T05:22:54;96236.91;;;-1.84;100.00
61757;BME280;57225;61.460;24.060;2023-12-22T05:25:38;96222.63;;;-1.91;100.00
61757;BME280;57225;61.460;24.060;2023-12-22T05:28:24;96231.97;;;-1.92;100.00
61757;BME280;57225;61.460;24.060;2023-12-22T05:31:09;96226.53;;;-1.92;100.00
61757;BME280;57225;61.460;24.060;2023-12-22T05:33:53;96224.94;;;-1.90;100.00
61757;BME280;57225;61.460;24.060;2023-12-22T05:36:38;96218.72;;;-1.90;100.00
61757;BME280;57225;61.460;24.060;2023-12-22T05:39:22;96222.25;;;-1.93;100.00
61757;BME280;57225;61.460;24.060;2023-12-22T05:42:07;96222.50;;;-1.84;100.00
61757;BME280;57225;61.460;24.060;2023-12-22T05:44:51;96217.97;;;-1.94;100.00
61757;BME280;57225;61.460;24.060;2023-12-22T05:47:35;96213.59;;;-1.88;100.00
61757;BME280;57225;61.460;24.060;2023-12-22T05:50:20;96217.09;;;-1.88;100.00
61757;BME280;57225;61.460;24.060;2023-12-22T05:53:04;96219.88;;;-1.91;100.00
61757;BME280;57225;61.460;24.060;2023-12-22T05:55:49;96209.03;;;-1.95;100.00
61757;BME280;57225;61.460;24.060;2023-12-22T05:58:33;96212.75;;;-1.85;100.00
61757;BME280;57225;61.460;24.060;2023-12-22T06:01:18;96224.50;;;-1.88;100.00
61757;BME280;57225;61.460;24.060;2023-12-22T06:04:03;96215.97;;;-1.90;100.00
61757;BME280;57225;61.460;24.060;2023-12-22T06:06:47;96216.31;;;-1.88;100.00
61757;BME280;57225;61.460;24.060;2023-12-22T06:09:32;96215.22;;;-1.91;100.00
61757;BME280;57225;61.460;24.060;2023-12-22T06:12:16;96213.25;;;-1.90;100.00
61757;BME280;57225;61.460;24.060;2023-12-22T06:15:01;96232.81;;;-1.72;100.00
61757;BME280;57225;61.460;24.060;2023-12-22T06:17:45;96232.06;;;-1.76;100.00
61757;BME280;57225;61.460;24.060;2023-12-22T06:20:30;96234.50;;;-1.82;100.00
61757;BME280;57225;61.460;24.060;2023-12-22T06:23:14;96230.19;;;-1.79;100.00
61757;BME280;57225;61.460;24.060;2023-12-22T06:25:58;96227.50;;;-1.83;100.00
61757;BME280;57225;61.460;24.060;2023-12-22T06:28:43;96223.19;;;-1.80;100.00
61757;BME280;57225;61.460;24.060;2023-12-22T06:31:27;96226.41;;;-1.85;100.00
61757;BME280;57225;61.460;24.060;2023-12-22T06:34:12;96223.84;;;-1.73;100.00
61757;BME280;57225;61.460;24.060;2023-12-22T06:36:57;96218.78;;;-1.74;100.00
61757;BME280;57225;61.460;24.060;2023-12-22T06:39:41;96223.13;;;-1.77;100.00
61757;BME280;57225;61.460;24.060;2023-12-22T06:42:25;96217.81;;;-1.64;100.00
61757;BME280;57225;61.460;24.060;2023-12-22T06:45:10;96227.56;;;-1.63;100.00
61757;BME280;57225;61.460;24.060;2023-12-22T06:47:55;96206.00;;;-1.77;100.00
61757;BME280;57225;61.460;24.060;2023-12-22T06:50:39;96222.22;;;-1.70;100.00
61757;BME280;57225;61.460;24.060;2023-12-22T06:53:24;96215.94;;;-1.67;100.00
61757;BME280;57225;61.460;24.060;2023-12-22T06:56:19;96222.03;;;-1.59;100.00
61757;BME280;57225;61.460;24.060;2023-12-22T06:59:04;96229.78;;;-1.58;100.00
61757;BME280;57225;61.460;24.060;2023-12-22T07:01:48;96223.59;;;-1.58;100.00
61757;BME280;57225;61.460;24.060;2023-12-22T07:05:01;96224.06;;;-1.64;100.00
61757;BME280;57225;61.460;24.060;2023-12-22T07:07:52;96233.84;;;-1.66;100.00
61757;BME280;57225;61.460;24.060;2023-12-22T07:10:36;96231.53;;;-1.68;100.00
61757;BME280;57225;61.460;24.060;2023-12-22T07:13:21;96222.44;;;-1.61;100.00
61757;BME280;57225;61.460;24.060;2023-12-22T07:16:06;96221.28;;;-1.60;100.00
61757;BME280;57225;61.460;24.060;2023-12-22T07:18:50;96216.50;;;-1.56;100.00
61757;BME280;57225;61.460;24.060;2023-12-22T07:21:35;96226.72;;;-1.60;100.00
61757;BME280;57225;61.460;24.060;2023-12-22T07:24:19;96218.88;;;-1.58;100.00
61757;BME280;57225;61.460;24.060;2023-12-22T07:27:04;96209.09;;;-1.55;100.00
61757;BME280;57225;61.460;24.060;2023-12-22T07:29:49;96209.09;;;-1.55;100.00
61757;BME280;57225;61.460;24.060;2023-12-22T07:32:34;96218.06;;;-1.55;100.00
61757;BME280;57225;61.460;24.060;2023-12-22T07:35:19;96218.47;;;-1.56;100.00
61757;BME280;57225;61.460;24.060;2023-12-22T07:38:03;96215.69;;;-1.53;100.00
61757;BME280;57225;61.460;24.060;2023-12-22T07:40:47;96211.31;;;-1.50;100.00
61757;BME280;57225;61.460;24.060;2023-12-22T07:43:32;96214.00;;;-1.47;100.00
61757;BME280;57225;61.460;24.060;2023-12-22T07:46:18;96222.25;;;-1.50;100.00
61757;BME280;57225;61.460;24.060;2023-12-22T07:49:03;96229.59;;;-1.47;100.00
61757;BME280;57225;61.460;24.060;2023-12-22T07:51:47;96222.25;;;-1.50;100.00
61757;BME280;57225;61.460;24.060;2023-12-22T07:54:32;96221.84;;;-1.49;100.00
61757;BME280;57225;61.460;24.060;2023-12-22T07:57:17;96231.22;;;-1.50;100.00
61757;BME280;57225;61.460;24.060;2023-12-22T08:00:02;96218.59;;;-1.44;100.00
61757;BME280;57225;61.460;24.060;2023-12-22T08:02:47;96202.31;;;-1.47;100.00
61757;BME280;57225;61.460;24.060;2023-12-22T08:05:32;96215.31;;;-1.55;100.00
61757;BME280;57225;61.460;24.060;2023-12-22T08:08:17;96225.41;;;-1.52;100.00
61757;BME280;57225;61.460;24.060;2023-12-22T08:11:02;96216.50;;;-1.56;100.00
61757;BME280;57225;61.460;24.060;2023-12-22T08:13:47;96214.00;;;-1.47;100.00
61757;BME280;57225;61.460;24.060;2023-12-22T08:16:31;96214.81;;;-1.50;100.00
61757;BME280;57225;61.460;24.060;2023-12-22T08:19:17;96216.59;;;-1.59;100.00
61757;BME280;57225;61.460;24.060;2023-12-22T08:22:01;96211.03;;;-1.56;100.00
61757;BME280;57225;61.460;24.060;2023-12-22T08:24:45;96216.75;;;-1.70;100.00
61757;BME280;57225;61.460;24.060;2023-12-22T08:27:31;96212.72;;;-1.62;100.00
61757;BME280;57225;61.460;24.060;2023-12-22T08:30:16;96223.50;;;-1.55;100.00
61757;BME280;57225;61.460;24.060;2023-12-22T08:33:00;96222.88;;;-1.63;100.00
61757;BME280;57225;61.460;24.060;2023-12-22T08:35:45;96223.28;;;-1.64;100.00
61757;BME280;57225;61.460;24.060;2023-12-22T08:38:30;96224.28;;;-1.54;100.00
61757;BME280;57225;61.460;24.060;2023-12-22T08:41:14;96209.59;;;-1.60;100.00
61757;BME280;57225;61.460;24.060;2023-12-22T08:43:59;96215.44;;;-1.62;100.00
61757;BME280;57225;61.460;24.060;2023-12-22T08:46:43;96206.84;;;-1.60;100.00
61757;BME280;57225;61.460;24.060;2023-12-22T08:49:28;96209.88;;;-1.55;100.00
61757;BME280;57225;61.460;24.060;2023-12-22T08:52:12;96206.16;;;-1.65;100.00
61757;BME280;57225;61.460;24.060;2023-12-22T08:54:57;96203.00;;;-1.63;100.00
61757;BME280;57225;61.460;24.060;2023-12-22T08:57:42;96206.00;;;-1.57;100.00
61757;BME280;57225;61.460;24.060;2023-12-22T09:00:26;96189.84;;;-1.68;100.00
61757;BME280;57225;61.460;24.060;2023-12-22T09:03:10;96206.50;;;-1.63;100.00
61757;BME280;57225;61.460;24.060;2023-12-22T09:05:55;96210.00;;;-1.62;100.00
61757;BME280;57225;61.460;24.060;2023-12-22T09:08:39;96201.88;;;-1.66;100.00
61757;BME280;57225;61.460;24.060;2023-12-22T09:11:24;96206.50;;;-1.63;100.00
61757;BME280;57225;61.460;24.060;2023-12-22T09:14:09;96195.16;;;-1.61;100.00
61757;BME280;57225;61.460;24.060;2023-12-22T09:16:54;96204.13;;;-1.60;100.00
61757;BME280;57225;61.460;24.060;2023-12-22T09:19:39;96185.06;;;-1.64;100.00
61757;BME280;57225;61.460;24.060;2023-12-22T09:22:24;96194.09;;;-1.67;100.00
61757;BME280;57225;61.460;24.060;2023-12-22T09:25:08;96178.50;;;-1.67;100.00
61757;BME280;57225;61.460;24.060;2023-12-22T09:27:53;96186.97;;;-1.61;100.00
61757;BME280;57225;61.460;24.060;2023-12-22T09:30:46;96184.75;;;-1.66;100.00
61757;BME280;57225;61.460;24.060;2023-12-22T09:33:32;96184.59;;;-1.59;100.00
61757;BME280;57225;61.460;24.060;2023-12-22T09:36:16;96181.44;;;-1.57;100.00
61757;BME280;57225;61.460;24.060;2023-12-22T09:39:01;96176.97;;;-1.68;100.00
61757;BME280;57225;61.460;24.060;2023-12-22T09:41:50;96180.88;;;-1.69;100.00
61757;BME280;57225;61.460;24.060;2023-12-22T09:44:36;96181.94;;;-1.63;100.00
61757;BME280;57225;61.460;24.060;2023-12-22T09:47:21;96178.44;;;-1.63;100.00
61757;BME280;57225;61.460;24.060;2023-12-22T09:50:07;96167.59;;;-1.67;100.00
61757;BME280;57225;61.460;24.060;2023-12-22T09:52:53;96175.38;;;-1.65;100.00
61757;BME280;57225;61.460;24.060;2023-12-22T09:55:40;96175.00;;;-1.67;100.00
61757;BME280;57225;61.460;24.060;2023-12-22T09:58:25;96168.41;;;-1.70;100.00
61757;BME280;57225;61.460;24.060;2023-12-22T10:01:10;96173.88;;;-1.70;100.00
61757;BME280;57225;61.460;24.060;2023-12-22T10:03:54;96168.84;;;-1.71;100.00
61757;BME280;57225;61.460;24.060;2023-12-22T10:06:39;96170.59;;;-1.61;100.00
61757;BME280;57225;61.460;24.060;2023-12-22T10:09:24;96165.81;;;-1.57;100.00
61757;BME280;57225;61.460;24.060;2023-12-22T10:12:11;96166.47;;;-1.69;100.00
61757;BME280;57225;61.460;24.060;2023-12-22T10:14:56;96163.81;;;-1.73;100.00
61757;BME280;57225;61.460;24.060;2023-12-22T10:17:41;96164.09;;;-1.67;100.00
61757;BME280;57225;61.460;24.060;2023-12-22T10:20:26;96168.28;;;-1.63;100.00
61757;BME280;57225;61.460;24.060;2023-12-22T10:23:10;96167.19;;;-1.65;100.00
61757;BME280;57225;61.460;24.060;2023-12-22T10:25:57;96165.50;;;-1.59;100.00
61757;BME280;57225;61.460;24.060;2023-12-22T10:28:42;96165.63;;;-1.66;100.00
61757;BME280;57225;61.460;24.060;2023-12-22T10:31:27;96166.75;;;-1.64;100.00
61757;BME280;57225;61.460;24.060;2023-12-22T10:34:11;96163.59;;;-1.62;100.00
61757;BME280;57225;61.460;24.060;2023-12-22T10:36:56;96154.78;;;-1.70;100.00
61757;BME280;57225;61.460;24.060;2023-12-22T10:39:41;96160.22;;;-1.70;100.00
61757;BME280;57225;61.460;24.060;2023-12-22T10:42:25;96171.22;;;-1.53;100.00
61757;BME280;57225;61.460;24.060;2023-12-22T10:45:10;96161.00;;;-1.49;100.00
61757;BME280;57225;61.460;24.060;2023-12-22T10:47:54;96165.78;;;-1.53;100.00
61757;BME280;57225;61.460;24.060;2023-12-22T10:50:39;96121.97;;;-1.86;100.00
61757;BME280;57225;61.460;24.060;2023-12-22T10:53:25;96163.53;;;-1.58;100.00
61757;BME280;57225;61.460;24.060;2023-12-22T10:56:10;96151.72;;;-1.52;100.00
61757;BME280;57225;61.460;24.060;2023-12-22T10:58:56;96162.13;;;-1.47;100.00
61757;BME280;57225;61.460;24.060;2023-12-22T11:01:42;96157.88;;;-1.48;100.00
61757;BME280;57225;61.460;24.060;2023-12-22T11:04:30;96148.47;;;-1.47;100.00
61757;BME280;57225;61.460;24.060;2023-12-22T11:07:19;96151.53;;;-1.45;100.00
61757;BME280;57225;61.460;24.060;2023-12-22T11:10:06;96159.72;;;-1.45;100.00
61757;BME280;57225;61.460;24.060;2023-12-22T11:12:51;96137.56;;;-1.47;100.00
61757;BME280;57225;61.460;24.060;2023-12-22T11:15:37;96148.47;;;-1.47;100.00
61757;BME280;57225;61.460;24.060;2023-12-22T11:18:23;96153.09;;;-1.44;100.00
61757;BME280;57225;61.460;24.060;2023-12-22T11:21:10;96157.00;;;-1.45;100.00
61757;BME280;57225;61.460;24.060;2023-12-22T11:23:56;96124.88;;;-1.57;100.00
61757;BME280;57225;61.460;24.060;2023-12-22T11:26:41;96152.31;;;-1.44;100.00
61757;BME280;57225;61.460;24.060;2023-12-22T11:29:29;96138.63;;;-1.41;100.00
61757;BME280;57225;61.460;24.060;2023-12-22T11:32:16;96136.50;;;-1.33;100.00
61757;BME280;57225;61.460;24.060;2023-12-22T11:35:01;96131.09;;;-1.37;100.00
61757;BME280;57225;61.460;24.060;2023-12-22T11:37:46;96136.56;;;-1.37;100.00
61757;BME280;57225;61.460;24.060;2023-12-22T11:40:32;96128.00;;;-1.39;100.00
61757;BME280;57225;61.460;24.060;2023-12-22T11:43:16;96133.00;;;-1.34;100.00
61757;BME280;57225;61.460;24.060;2023-12-22T11:46:05;96124.09;;;-1.38;100.00
61757;BME280;57225;61.460;24.060;2023-12-22T11:48:51;96126.16;;;-1.42;100.00
61757;BME280;57225;61.460;24.060;2023-12-22T11:51:36;96122.56;;;-1.39;100.00
61757;BME280;57225;61.460;24.060;2023-12-22T11:57:35;96123.69;;;-1.36;100.00
61757;BME280;57225;61.460;24.060;2023-12-22T12:03:07;96113.31;;;-1.45;100.00
61757;BME280;57225;61.460;24.060;2023-12-22T12:06:31;96100.31;;;-1.57;100.00
61757;BME280;57225;61.460;24.060;2023-12-22T12:09:14;96122.56;;;-1.39;100.00
61757;BME280;57225;61.460;24.060;2023-12-22T12:14:51;96113.53;;;-1.36;100.00
61757;BME280;57225;61.460;24.060;2023-12-22T12:17:41;96126.31;;;-1.33;100.00
61757;BME280;57225;61.460;24.060;2023-12-22T12:20:27;96120.19;;;-1.37;100.00
61757;BME280;57225;61.460;24.060;2023-12-22T12:23:11;96122.22;;;-1.41;100.00
61757;BME280;57225;61.460;24.060;2023-12-22T12:25:56;96116.41;;;-1.43;100.00
61757;BME280;57225;61.460;24.060;2023-12-22T12:28:44;96110.13;;;-1.40;100.00
61757;BME280;57225;61.460;24.060;2023-12-22T12:31:36;96113.91;;;-1.34;100.00
61757;BME280;57225;61.460;24.060;2023-12-22T12:34:26;96113.19;;;-1.38;100.00
61757;BME280;57225;61.460;24.060;2023-12-22T12:37:11;96100.38;;;-1.41;100.00
61757;BME280;57225;61.460;24.060;2023-12-22T12:39:58;96090.81;;;-1.49;100.00
61757;BME280;57225;61.460;24.060;2023-12-22T12:42:47;96106.69;;;-1.44;100.00
61757;BME280;57225;61.460;24.060;2023-12-22T12:45:38;96109.34;;;-1.40;100.00
61757;BME280;57225;61.460;24.060;2023-12-22T12:48:22;96110.13;;;-1.40;100.00
61757;BME280;57225;61.460;24.060;2023-12-22T12:51:07;96099.78;;;-1.32;100.00
61757;BME280;57225;61.460;24.060;2023-12-22T12:53:51;96113.44;;;-1.32;100.00
61757;BME280;57225;61.460;24.060;2023-12-22T12:56:46;96108.06;;;-1.36;100.00
61757;BME280;57225;61.460;24.060;2023-12-22T12:59:31;96117.31;;;-1.30;100.00
61757;BME280;57225;61.460;24.060;2023-12-22T13:02:16;96116.41;;;-1.43;100.00
61757;BME280;57225;61.460;24.060;2023-12-22T13:05:01;96112.50;;;-1.42;100.00
61757;BME280;57225;61.460;24.060;2023-12-22T13:07:48;96116.41;;;-1.43;100.00
61757;BME280;57225;61.460;24.060;2023-12-22T13:10:33;96112.34;;;-1.35;100.00
61757;BME280;57225;61.460;24.060;2023-12-22T13:13:17;96120.81;;;-1.29;100.00
61757;BME280;57225;61.460;24.060;2023-12-22T13:16:02;96126.19;;;-1.26;100.00
61757;BME280;57225;61.460;24.060;2023-12-22T13:18:46;96113.13;;;-1.34;100.00
61757;BME280;57225;61.460;24.060;2023-12-22T13:21:31;96118.63;;;-1.38;100.00
61757;BME280;57225;61.460;24.060;2023-12-22T13:24:16;96125.00;;;-1.44;100.00
61757;BME280;57225;61.460;24.060;2023-12-22T13:27:03;96128.72;;;-1.35;100.00
61757;BME280;57225;61.460;24.060;2023-12-22T13:29:50;96129.78;;;-1.29;100.00
61757;BME280;57225;61.460;24.060;2023-12-22T13:32:37;96126.84;;;-1.38;100.00
61757;BME280;57225;61.460;24.060;2023-12-22T13:35:23;96115.91;;;-1.38;100.00
61757;BME280;57225;61.460;24.060;2023-12-22T13:38:09;96117.81;;;-1.35;100.00
61757;BME280;57225;61.460;24.060;2023-12-22T13:40:53;96119.50;;;-1.41;100.00
61757;BME280;57225;61.460;24.060;2023-12-22T13:43:38;96120.31;;;-1.44;100.00
61757;BME280;57225;61.460;24.060;2023-12-22T13:46:26;96122.91;;;-1.37;100.00
61757;BME280;57225;61.460;24.060;2023-12-22T13:49:11;96118.00;;;-1.45;100.00
61757;BME280;57225;61.460;24.060;2023-12-22T13:51:56;96133.34;;;-1.32;100.00
61757;BME280;57225;61.460;24.060;2023-12-22T13:54:40;96128.38;;;-1.37;100.00
61757;BME280;57225;61.460;24.060;2023-12-22T13:57:25;96130.75;;;-1.39;100.00
61757;BME280;57225;61.460;24.060;2023-12-22T14:03:03;96124.47;;;-1.36;100.00
61757;BME280;57225;61.460;24.060;2023-12-22T14:05:48;96139.66;;;-1.35;100.00
61757;BME280;57225;61.460;24.060;2023-12-22T14:08:33;96122.25;;;-1.25;100.00
61757;BME280;57225;61.460;24.060;2023-12-22T14:11:17;96125.50;;;-1.30;100.00
61757;BME280;57225;61.460;24.060;2023-12-22T14:14:02;96124.09;;;-1.38;100.00
61757;BME280;57225;61.460;24.060;2023-12-22T14:16:46;96127.88;;;-1.32;100.00
61757;BME280;57225;61.460;24.060;2023-12-22T14:19:31;96125.66;;;-1.37;100.00
61757;BME280;57225;61.460;24.060;2023-12-22T14:22:15;96129.91;;;-1.36;100.00
61757;BME280;57225;61.460;24.060;2023-12-22T14:25:00;96145.13;;;-1.35;100.00